createdAt,value
2023-05-17T00:01:56.830Z,19.20
2023-05-17T00:04:23.648Z,19.17
2023-05-17T00:06:50.660Z,19.20
2023-05-17T00:09:17.722Z,19.31
2023-05-17T00:11:45.369Z,19.16
2023-05-17T00:14:13.037Z,19.14
2023-05-17T00:16:39.876Z,19.25
2023-05-17T00:19:08.827Z,19.28
2023-05-17T00:21:36.008Z,19.44
2023-05-17T00:24:03.304Z,19.70
2023-05-17T00:26:30.730Z,19.80
2023-05-17T00:28:57.557Z,19.88
2023-05-17T00:31:24.381Z,19.68
2023-05-17T00:33:51.483Z,19.68
2023-05-17T00:36:18.501Z,19.47
2023-05-17T00:38:45.478Z,19.49
2023-05-17T00:41:12.589Z,19.46
2023-05-17T00:43:39.465Z,19.39
2023-05-17T00:46:08.117Z,19.40
2023-05-17T00:48:36.651Z,19.05
2023-05-17T00:51:03.626Z,19.10
2023-05-17T00:53:31.818Z,19.13
2023-05-17T00:55:58.965Z,19.17
2023-05-17T00:58:26.206Z,19.14
2023-05-17T01:00:52.954Z,19.30
2023-05-17T01:03:22.048Z,19.39
2023-05-17T01:05:51.260Z,19.36
2023-05-17T01:08:18.221Z,19.34
2023-05-17T01:11:05.377Z,19.11
2023-05-17T01:13:57.535Z,19.05
2023-05-17T01:16:40.362Z,19.13
2023-05-17T01:19:36.221Z,19.14
2023-05-17T01:22:15.554Z,19.09
2023-05-17T01:25:07.959Z,19.09
2023-05-17T01:27:35.827Z,19.16
2023-05-17T01:30:02.851Z,19.23
2023-05-17T01:32:30.304Z,19.19
2023-05-17T01:34:57.141Z,19.19
2023-05-17T01:37:23.991Z,19.07
2023-05-17T01:39:52.706Z,19.08
2023-05-17T01:42:24.053Z,19.26
2023-05-17T01:45:06.013Z,19.58
2023-05-17T01:47:35.668Z,19.27
2023-05-17T01:50:03.008Z,19.11
2023-05-17T01:52:50.825Z,19.20
2023-05-17T01:55:36.350Z,19.11
2023-05-17T01:58:03.984Z,19.24
2023-05-17T02:00:31.042Z,19.29
2023-05-17T02:02:57.999Z,19.38
2023-05-17T02:05:25.057Z,19.52
2023-05-17T02:07:52.424Z,19.60
2023-05-17T02:10:19.830Z,19.72
2023-05-17T02:12:46.627Z,19.82
2023-05-17T02:15:15.772Z,19.88
2023-05-17T02:17:42.699Z,19.85
2023-05-17T02:20:11.298Z,19.71
2023-05-17T02:22:38.454Z,19.78
2023-05-17T02:25:06.541Z,19.79
2023-05-17T02:27:33.568Z,19.75
2023-05-17T02:30:01.436Z,19.75
2023-05-17T02:32:29.921Z,19.78
2023-05-17T02:34:56.777Z,19.94
2023-05-17T02:37:23.723Z,19.92
2023-05-17T02:39:50.654Z,20.00
2023-05-17T02:42:17.479Z,19.93
2023-05-17T02:44:44.338Z,19.82
2023-05-17T02:47:11.229Z,19.90
2023-05-17T02:49:38.215Z,19.82
2023-05-17T02:52:05.423Z,19.98
2023-05-17T02:54:33.330Z,20.08
2023-05-17T02:57:00.671Z,20.21
2023-05-17T02:59:27.553Z,20.17
2023-05-17T03:01:54.877Z,20.14
2023-05-17T03:04:22.079Z,20.14
2023-05-17T03:06:50.403Z,20.19
2023-05-17T03:09:17.640Z,20.22
2023-05-17T03:11:46.498Z,20.22
2023-05-17T03:14:19.044Z,20.12
2023-05-17T03:16:45.920Z,20.10
2023-05-17T03:19:13.499Z,20.19
2023-05-17T03:21:42.186Z,20.16
2023-05-17T03:24:09.253Z,20.22
2023-05-17T03:26:37.408Z,20.16
2023-05-17T03:29:05.399Z,20.26
2023-05-17T03:31:32.427Z,20.23
2023-05-17T03:33:59.534Z,20.30
2023-05-17T03:36:26.649Z,20.15
2023-05-17T03:38:53.864Z,20.33
2023-05-17T03:41:21.352Z,20.40
2023-05-17T03:43:49.212Z,20.54
2023-05-17T03:46:16.532Z,20.50
2023-05-17T03:48:43.593Z,20.50
2023-05-17T03:51:11.681Z,20.61
2023-05-17T03:53:42.604Z,20.43
2023-05-17T03:56:10.699Z,20.47
2023-05-17T03:58:38.050Z,20.64
2023-05-17T04:01:06.233Z,20.64
2023-05-17T04:03:33.326Z,20.74
2023-05-17T04:06:08.721Z,20.72
2023-05-17T04:08:36.510Z,20.63
2023-05-17T04:11:09.668Z,20.63
2023-05-17T04:13:37.446Z,20.48
2023-05-17T04:16:05.436Z,20.69
2023-05-17T04:18:36.487Z,20.57
2023-05-17T04:21:03.993Z,20.53
2023-05-17T04:23:32.897Z,20.60
2023-05-17T04:25:59.943Z,20.61
2023-05-17T04:28:28.110Z,20.60
2023-05-17T04:30:55.875Z,20.74
2023-05-17T04:33:23.610Z,20.89
2023-05-17T04:35:51.194Z,21.04
2023-05-17T04:38:19.164Z,21.07
2023-05-17T04:40:46.213Z,21.15
2023-05-17T04:43:13.880Z,21.06
2023-05-17T04:45:41.231Z,21.21
2023-05-17T04:48:08.596Z,21.32
2023-05-17T04:50:36.145Z,21.22
2023-05-17T04:53:04.236Z,21.24
2023-05-17T04:55:32.695Z,21.33
2023-05-17T04:57:59.637Z,21.51
2023-05-17T05:00:27.524Z,21.60
2023-05-17T05:02:59.661Z,21.52
2023-05-17T05:05:26.813Z,21.59
2023-05-17T05:07:54.352Z,21.78
2023-05-17T05:10:22.657Z,21.89
2023-05-17T05:12:50.252Z,21.97
2023-05-17T05:15:17.448Z,21.84
2023-05-17T05:17:49.175Z,21.90
2023-05-17T05:20:16.149Z,21.97
2023-05-17T05:22:43.516Z,21.95
2023-05-17T05:25:10.902Z,21.92
2023-05-17T05:27:37.863Z,22.05
2023-05-17T05:30:05.680Z,22.16
2023-05-17T05:32:33.427Z,22.35
2023-05-17T05:35:00.885Z,22.29
2023-05-17T05:37:28.056Z,22.32
2023-05-17T05:39:56.133Z,22.31
2023-05-17T05:42:23.268Z,22.49
2023-05-17T05:44:50.188Z,22.51
2023-05-17T05:47:17.452Z,22.39
2023-05-17T05:49:44.387Z,22.46
2023-05-17T05:52:11.528Z,22.66
2023-05-17T05:54:38.855Z,22.83
2023-05-17T05:57:06.153Z,23.00
2023-05-17T05:59:33.746Z,23.00
2023-05-17T06:02:01.015Z,23.14
2023-05-17T06:04:40.681Z,23.18
2023-05-17T06:07:13.444Z,23.46
2023-05-17T06:09:41.090Z,23.73
2023-05-17T06:12:08.240Z,23.70
2023-05-17T06:14:37.000Z,23.90
2023-05-17T06:17:04.562Z,23.96
2023-05-17T06:19:31.868Z,23.96
2023-05-17T06:21:58.962Z,24.02
2023-05-17T06:24:25.821Z,24.10
2023-05-17T06:26:52.736Z,24.14
2023-05-17T06:29:19.595Z,24.11
2023-05-17T06:31:47.556Z,24.17
2023-05-17T06:34:14.361Z,24.51
2023-05-17T06:36:41.170Z,24.53
2023-05-17T06:39:08.030Z,24.62
2023-05-17T06:41:34.792Z,24.66
2023-05-17T06:44:01.869Z,24.81
2023-05-17T06:46:29.157Z,24.82
2023-05-17T06:48:56.399Z,24.63
2023-05-17T06:51:24.469Z,24.82
2023-05-17T06:53:51.607Z,24.90
2023-05-17T06:56:18.455Z,24.72
2023-05-17T06:58:45.475Z,24.93
2023-05-17T07:01:13.138Z,25.01
2023-05-17T07:03:40.142Z,25.20
2023-05-17T07:06:07.238Z,25.62
2023-05-17T07:08:35.702Z,25.86
2023-05-17T07:11:03.089Z,25.61
2023-05-17T07:13:30.730Z,25.70
2023-05-17T07:15:57.979Z,25.33
2023-05-17T07:18:26.078Z,25.22
2023-05-17T07:20:53.223Z,25.60
2023-05-17T07:23:20.078Z,25.60
2023-05-17T07:25:46.994Z,25.72
2023-05-17T07:28:16.521Z,26.04
2023-05-17T07:30:43.545Z,26.01
2023-05-17T07:33:11.202Z,26.29
2023-05-17T07:35:38.160Z,26.48
2023-05-17T07:38:04.947Z,26.74
2023-05-17T07:40:32.689Z,27.01
2023-05-17T07:43:00.015Z,27.27
2023-05-17T07:45:27.174Z,27.48
2023-05-17T07:47:54.212Z,27.40
2023-05-17T07:50:21.643Z,27.06
2023-05-17T07:52:48.800Z,27.04
2023-05-17T07:55:17.004Z,27.32
2023-05-17T07:57:44.850Z,27.10
2023-05-17T08:00:13.031Z,27.00
2023-05-17T08:02:40.407Z,27.00
2023-05-17T08:05:08.052Z,27.32
2023-05-17T08:07:35.490Z,27.45
2023-05-17T08:10:02.713Z,27.37
2023-05-17T08:12:31.753Z,27.64
2023-05-17T08:15:00.030Z,28.00
2023-05-17T08:17:27.083Z,28.29
2023-05-17T08:19:54.467Z,28.31
2023-05-17T08:22:21.362Z,28.58
2023-05-17T08:24:48.425Z,28.94
2023-05-17T08:27:16.351Z,29.43
2023-05-17T08:29:43.848Z,29.75
2023-05-17T08:32:10.617Z,29.81
2023-05-17T08:34:37.794Z,29.66
2023-05-17T08:37:04.673Z,29.99
2023-05-17T08:39:32.113Z,30.46
2023-05-17T08:42:01.102Z,30.65
2023-05-17T08:44:28.037Z,30.89
2023-05-17T08:46:54.934Z,30.65
2023-05-17T08:49:22.946Z,30.85
2023-05-17T08:51:50.133Z,30.58
2023-05-17T08:54:17.169Z,30.12
2023-05-17T08:56:44.550Z,30.13
2023-05-17T08:59:11.308Z,30.02
2023-05-17T09:01:39.442Z,29.56
2023-05-17T09:04:08.484Z,29.60
2023-05-17T09:06:35.648Z,29.82
2023-05-17T09:09:03.947Z,30.24
2023-05-17T09:11:32.412Z,30.28
2023-05-17T09:14:03.272Z,30.73
2023-05-17T09:16:37.175Z,30.25
2023-05-17T09:19:05.658Z,30.53
2023-05-17T09:21:33.612Z,30.67
2023-05-17T09:24:06.199Z,31.01
2023-05-17T09:26:42.241Z,30.80
2023-05-17T09:29:10.962Z,30.26
2023-05-17T09:31:39.104Z,30.27
2023-05-17T09:34:09.357Z,30.92
2023-05-17T09:36:37.245Z,30.89
2023-05-17T09:39:05.609Z,30.39
2023-05-17T09:41:33.768Z,30.45
2023-05-17T09:44:01.000Z,30.50
2023-05-17T09:46:28.868Z,30.11
2023-05-17T09:48:56.182Z,30.41
2023-05-17T09:51:32.077Z,30.12
2023-05-17T09:53:59.022Z,30.13
2023-05-17T09:56:29.493Z,30.00
2023-05-17T09:58:58.529Z,29.86
2023-05-17T10:01:28.122Z,30.02
2023-05-17T10:03:55.316Z,29.65
2023-05-17T10:06:38.318Z,29.19
2023-05-17T10:09:11.739Z,29.07
2023-05-17T10:11:38.783Z,29.14
2023-05-17T10:14:26.623Z,29.34
2023-05-17T10:16:53.358Z,29.55
2023-05-17T10:19:21.235Z,29.17
2023-05-17T10:21:49.991Z,28.74
2023-05-17T10:24:17.042Z,28.94
2023-05-17T10:26:44.891Z,29.20
2023-05-17T10:29:11.679Z,29.36
2023-05-17T10:31:40.024Z,28.98
2023-05-17T10:34:07.439Z,28.77
2023-05-17T10:36:34.737Z,28.81
2023-05-17T10:39:21.619Z,28.66
2023-05-17T10:41:50.766Z,28.85
2023-05-17T10:44:18.845Z,28.94
2023-05-17T10:46:56.647Z,28.97
2023-05-17T10:49:25.453Z,28.94
2023-05-17T10:51:52.350Z,28.62
2023-05-17T10:54:19.287Z,28.71
2023-05-17T10:56:50.440Z,29.30
2023-05-17T10:59:18.101Z,29.32
2023-05-17T11:02:00.273Z,29.13
2023-05-17T11:04:33.259Z,29.11
2023-05-17T11:07:19.807Z,29.10
2023-05-17T11:10:09.250Z,29.22
2023-05-17T11:12:45.412Z,29.56
2023-05-17T11:15:16.642Z,29.46
2023-05-17T11:17:53.887Z,29.32
2023-05-17T11:20:27.912Z,29.13
2023-05-17T11:22:59.537Z,29.08
2023-05-17T11:25:31.888Z,29.18
2023-05-17T11:27:59.347Z,29.09
2023-05-17T11:30:28.362Z,29.10
2023-05-17T11:33:03.807Z,29.03
2023-05-17T11:35:33.388Z,29.36
2023-05-17T11:38:24.179Z,29.00
2023-05-17T11:40:54.726Z,29.18
2023-05-17T11:43:26.799Z,29.16
2023-05-17T11:45:57.671Z,29.09
2023-05-17T11:48:26.431Z,28.60
2023-05-17T11:50:54.605Z,28.62
2023-05-17T11:53:21.646Z,28.33
2023-05-17T11:55:52.248Z,28.30
2023-05-17T11:58:23.388Z,28.37
2023-05-17T12:00:57.481Z,28.63
2023-05-17T12:03:25.937Z,28.82
2023-05-17T12:06:14.467Z,28.47
2023-05-17T12:08:45.672Z,29.02
2023-05-17T12:11:14.498Z,28.85
2023-05-17T12:13:42.231Z,29.18
2023-05-17T12:16:10.920Z,28.94
2023-05-17T12:18:39.007Z,28.00
2023-05-17T12:21:06.240Z,27.86
2023-05-17T12:23:37.507Z,27.76
2023-05-17T12:26:09.338Z,28.04
2023-05-17T12:28:38.633Z,28.61
2023-05-17T12:31:10.633Z,28.60
2023-05-17T12:33:40.784Z,28.79
2023-05-17T12:36:09.045Z,28.85
2023-05-17T12:38:36.257Z,28.76
2023-05-17T12:41:03.983Z,28.82
2023-05-17T12:43:32.994Z,29.25
2023-05-17T12:46:06.701Z,29.43
2023-05-17T12:48:35.653Z,29.53
2023-05-17T12:51:24.356Z,29.46
2023-05-17T12:53:55.697Z,27.88
2023-05-17T12:56:24.109Z,21.39
2023-05-17T12:59:09.547Z,20.90
2023-05-17T13:01:38.548Z,21.63
2023-05-17T13:04:05.683Z,20.81
2023-05-17T13:06:47.489Z,22.88
2023-05-17T13:09:15.459Z,23.31
2023-05-17T13:11:43.756Z,21.31
2023-05-17T13:14:13.917Z,23.29
2023-05-17T13:16:42.269Z,24.30
2023-05-17T13:19:13.357Z,24.63
2023-05-17T13:21:40.631Z,24.85
2023-05-17T13:24:08.857Z,25.00
2023-05-17T13:26:35.849Z,25.30
2023-05-17T13:29:03.142Z,25.78
2023-05-17T13:31:30.266Z,26.34
2023-05-17T13:33:57.273Z,26.83
2023-05-17T13:36:24.091Z,27.21
2023-05-17T13:38:50.934Z,27.40
2023-05-17T13:41:17.866Z,27.56
2023-05-17T13:43:44.693Z,27.74
2023-05-17T13:46:11.465Z,27.88
2023-05-17T13:48:41.097Z,25.19
2023-05-17T13:51:09.726Z,21.91
2023-05-17T13:53:38.195Z,22.09
2023-05-17T13:56:05.447Z,22.82
2023-05-17T13:58:32.210Z,22.75
2023-05-17T14:00:59.028Z,23.09
2023-05-17T14:03:26.036Z,22.48
2023-05-17T14:05:53.677Z,22.85
2023-05-17T14:08:21.456Z,22.81
2023-05-17T14:10:48.294Z,22.61
2023-05-17T14:13:15.609Z,23.23
2023-05-17T14:15:42.476Z,23.32
2023-05-17T14:18:09.835Z,22.72
2023-05-17T14:20:36.768Z,22.37
2023-05-17T14:23:03.611Z,22.35
2023-05-17T14:25:30.436Z,23.35
2023-05-17T14:27:57.364Z,23.47
2023-05-17T14:30:24.206Z,22.53
2023-05-17T14:32:51.138Z,22.46
2023-05-17T14:35:18.045Z,23.06
2023-05-17T14:37:45.241Z,23.46
2023-05-17T14:40:12.180Z,23.57
2023-05-17T14:42:41.044Z,23.92
2023-05-17T14:45:08.499Z,23.92
2023-05-17T14:47:37.280Z,23.86
2023-05-17T14:50:04.457Z,23.99
2023-05-17T14:52:31.405Z,23.30
2023-05-17T14:54:58.777Z,22.85
2023-05-17T14:57:25.664Z,23.61
2023-05-17T14:59:52.498Z,24.57
2023-05-17T15:02:20.251Z,25.00
2023-05-17T15:04:47.711Z,25.43
2023-05-17T15:07:14.740Z,25.91
2023-05-17T15:09:42.772Z,26.12
2023-05-17T15:12:12.385Z,26.31
2023-05-17T15:14:41.232Z,26.56
2023-05-17T15:17:08.377Z,26.00
2023-05-17T15:19:35.619Z,25.42
2023-05-17T15:22:02.682Z,26.03
2023-05-17T15:24:30.264Z,26.24
2023-05-17T15:26:57.051Z,26.19
2023-05-17T15:29:24.117Z,26.28
2023-05-17T15:31:51.792Z,26.43
2023-05-17T15:34:18.753Z,26.40
2023-05-17T15:36:46.419Z,27.00
2023-05-17T15:39:13.584Z,27.14
2023-05-17T15:41:40.410Z,27.19
2023-05-17T15:44:08.511Z,27.33
2023-05-17T15:46:35.667Z,27.31
2023-05-17T15:49:02.479Z,27.04
2023-05-17T15:51:29.418Z,26.62
2023-05-17T15:53:56.508Z,26.10
2023-05-17T15:56:23.382Z,25.59
2023-05-17T15:58:50.360Z,25.81
2023-05-17T16:01:17.187Z,25.68
2023-05-17T16:03:44.046Z,25.40
2023-05-17T16:06:11.575Z,25.63
2023-05-17T16:08:38.544Z,25.89
2023-05-17T16:11:06.644Z,25.37
2023-05-17T16:13:33.989Z,24.63
2023-05-17T16:16:01.132Z,23.94
2023-05-17T16:18:29.741Z,24.50
2023-05-17T16:21:05.762Z,25.16
2023-05-17T16:23:33.194Z,25.27
2023-05-17T16:26:00.951Z,25.29
2023-05-17T16:28:27.863Z,23.88
2023-05-17T16:30:55.687Z,23.29
2023-05-17T16:33:22.863Z,23.64
2023-05-17T16:35:49.962Z,24.44
2023-05-17T16:38:17.306Z,24.71
2023-05-17T16:40:45.425Z,24.70
2023-05-17T16:43:15.532Z,24.54
2023-05-17T16:45:44.104Z,24.46
2023-05-17T16:48:14.433Z,24.33
2023-05-17T16:50:41.660Z,24.15
2023-05-17T16:53:08.516Z,24.26
2023-05-17T16:55:56.304Z,24.26
2023-05-17T16:58:23.145Z,24.27
2023-05-17T17:00:50.475Z,24.44
2023-05-17T17:03:17.349Z,24.45
2023-05-17T17:05:44.266Z,22.10
2023-05-17T17:08:11.414Z,21.75
2023-05-17T17:10:39.783Z,21.12
2023-05-17T17:13:06.610Z,20.81
2023-05-17T17:15:33.354Z,21.94
2023-05-17T17:18:00.435Z,22.59
2023-05-17T17:20:27.668Z,22.64
2023-05-17T17:22:55.618Z,22.76
2023-05-17T17:25:24.088Z,23.01
2023-05-17T17:27:53.077Z,23.12
2023-05-17T17:30:20.481Z,23.33
2023-05-17T17:32:48.003Z,23.29
2023-05-17T17:35:15.394Z,23.30
2023-05-17T17:37:42.398Z,23.27
2023-05-17T17:40:10.379Z,23.07
2023-05-17T17:42:37.356Z,22.89
2023-05-17T17:45:05.029Z,22.64
2023-05-17T17:47:32.498Z,22.64
2023-05-17T17:49:59.370Z,22.66
2023-05-17T17:52:26.094Z,22.65
2023-05-17T17:54:53.177Z,22.73
2023-05-17T17:57:40.029Z,22.82
2023-05-17T18:00:10.955Z,22.75
2023-05-17T18:02:39.208Z,22.89
2023-05-17T18:05:06.726Z,23.03
2023-05-17T18:07:34.213Z,23.14
2023-05-17T18:10:01.364Z,23.08
2023-05-17T18:12:28.459Z,22.91
2023-05-17T18:14:55.427Z,22.93
2023-05-17T18:17:22.401Z,22.73
2023-05-17T18:19:49.200Z,22.78
2023-05-17T18:22:16.498Z,22.89
2023-05-17T18:25:03.818Z,22.72
2023-05-17T18:27:30.974Z,22.56
2023-05-17T18:29:57.942Z,22.71
2023-05-17T18:32:25.133Z,22.74
2023-05-17T18:34:52.728Z,22.81
2023-05-17T18:37:19.679Z,22.90
2023-05-17T18:39:46.813Z,22.98
2023-05-17T18:42:13.687Z,23.08
2023-05-17T18:44:40.609Z,23.03
2023-05-17T18:47:07.531Z,23.03
2023-05-17T18:49:35.953Z,23.10
2023-05-17T18:52:02.978Z,23.11
2023-05-17T18:54:30.221Z,23.18
2023-05-17T18:56:59.117Z,23.12
2023-05-17T18:59:28.726Z,23.00
2023-05-17T19:01:55.761Z,23.02
2023-05-17T19:04:22.836Z,22.99
2023-05-17T19:06:50.081Z,22.99
2023-05-17T19:09:16.868Z,22.94
2023-05-17T19:11:43.855Z,22.98
2023-05-17T19:14:14.057Z,22.96
2023-05-17T19:16:41.564Z,23.07
2023-05-17T19:19:08.633Z,23.16
2023-05-17T19:21:35.691Z,23.08
2023-05-17T19:24:05.131Z,23.19
2023-05-17T19:26:32.083Z,23.04
2023-05-17T19:28:58.995Z,23.09
2023-05-17T19:31:26.206Z,23.16
2023-05-17T19:33:52.998Z,23.26
2023-05-17T19:36:19.850Z,23.22
2023-05-17T19:38:46.797Z,23.22
2023-05-17T19:41:13.738Z,23.06
2023-05-17T19:43:40.786Z,22.98
2023-05-17T19:46:10.120Z,23.11
2023-05-17T19:48:37.847Z,23.59
2023-05-17T19:51:04.909Z,22.95
2023-05-17T19:53:43.892Z,22.54
2023-05-17T19:56:18.130Z,22.39
2023-05-17T19:58:45.704Z,22.29
2023-05-17T20:01:12.643Z,22.29
2023-05-17T20:03:40.094Z,22.42
2023-05-17T20:06:10.515Z,22.49
2023-05-17T20:08:37.580Z,22.30
2023-05-17T20:11:05.750Z,22.45
2023-05-17T20:13:33.567Z,22.50
2023-05-17T20:16:00.792Z,22.25
2023-05-17T20:18:29.442Z,22.10
2023-05-17T20:20:56.682Z,21.96
2023-05-17T20:23:23.534Z,21.81
2023-05-17T20:25:50.688Z,21.78
2023-05-17T20:28:22.811Z,21.76
2023-05-17T20:30:49.562Z,21.75
2023-05-17T20:33:20.944Z,21.71
2023-05-17T20:35:48.289Z,21.79
2023-05-17T20:38:15.164Z,21.76
2023-05-17T20:40:42.620Z,21.79
2023-05-17T20:43:09.427Z,21.80
2023-05-17T20:45:37.120Z,21.63
2023-05-17T20:48:04.197Z,21.61
2023-05-17T20:50:31.221Z,21.85
2023-05-17T20:52:58.234Z,21.86
2023-05-17T20:55:26.098Z,21.88
2023-05-17T20:57:52.968Z,21.90
2023-05-17T21:00:20.589Z,21.80
2023-05-17T21:02:47.859Z,21.69
2023-05-17T21:05:15.006Z,21.67
2023-05-17T21:07:41.869Z,21.75
2023-05-17T21:10:09.024Z,21.68
2023-05-17T21:12:36.549Z,21.77
2023-05-17T21:15:15.697Z,21.82
2023-05-17T21:17:43.134Z,21.88
2023-05-17T21:20:10.911Z,21.79
2023-05-17T21:22:38.076Z,21.69
2023-05-17T21:25:05.624Z,21.64
2023-05-17T21:27:33.708Z,21.69
2023-05-17T21:30:01.206Z,21.52
2023-05-17T21:32:28.304Z,21.55
2023-05-17T21:34:55.548Z,21.65
2023-05-17T21:37:22.486Z,21.79
2023-05-17T21:39:49.408Z,21.94
2023-05-17T21:42:16.237Z,22.08
2023-05-17T21:44:43.212Z,22.10
2023-05-17T21:47:10.409Z,22.10
2023-05-17T21:49:37.416Z,22.09
2023-05-17T21:52:04.976Z,22.20
2023-05-17T21:54:31.829Z,22.28
2023-05-17T21:56:58.609Z,22.12
2023-05-17T21:59:25.460Z,22.08
2023-05-17T22:01:54.430Z,21.87
2023-05-17T22:04:21.332Z,21.89
2023-05-17T22:06:48.380Z,21.94
2023-05-17T22:09:15.266Z,21.93
2023-05-17T22:11:42.147Z,21.70
2023-05-17T22:14:08.944Z,21.72
2023-05-17T22:16:36.164Z,22.00
2023-05-17T22:19:04.540Z,21.87
2023-05-17T22:21:31.765Z,21.93
2023-05-17T22:23:58.984Z,22.01
2023-05-17T22:26:27.136Z,21.90
2023-05-17T22:28:55.280Z,22.03
2023-05-17T22:31:22.365Z,22.17
2023-05-17T22:33:53.265Z,22.43
2023-05-17T22:36:24.227Z,22.36
2023-05-17T22:38:51.127Z,22.43
2023-05-17T22:41:18.097Z,22.28
2023-05-17T22:43:45.346Z,22.16
2023-05-17T22:46:12.112Z,22.22
2023-05-17T22:48:40.053Z,22.25
2023-05-17T22:51:07.105Z,22.16
2023-05-17T22:53:33.973Z,22.10
2023-05-17T22:56:00.809Z,22.28
2023-05-17T22:58:28.857Z,22.46
2023-05-17T23:00:56.122Z,22.59
2023-05-17T23:03:23.090Z,22.70
2023-05-17T23:06:01.366Z,22.87
2023-05-17T23:08:29.640Z,22.84
2023-05-17T23:10:57.813Z,22.66
2023-05-17T23:13:25.555Z,22.43
2023-05-17T23:15:52.713Z,22.41
2023-05-17T23:18:20.908Z,22.35
2023-05-17T23:20:49.162Z,22.20
2023-05-17T23:23:16.232Z,22.34
2023-05-17T23:25:47.837Z,22.45
2023-05-17T23:28:14.575Z,22.53
2023-05-17T23:30:41.388Z,22.73
2023-05-17T23:33:08.568Z,22.58
2023-05-17T23:35:36.986Z,22.59
2023-05-17T23:38:06.696Z,22.58
2023-05-17T23:40:33.832Z,22.60
2023-05-17T23:43:00.643Z,22.67
2023-05-17T23:45:27.430Z,22.70
2023-05-17T23:47:55.019Z,22.84
2023-05-17T23:50:21.886Z,23.01
2023-05-17T23:52:48.644Z,23.09
2023-05-17T23:55:15.502Z,23.26
2023-05-17T23:57:43.394Z,23.46
